sensor_id;sensor_type;location;lat;lon;timestamp;pressure;altitude;pressure_sealevel;temperature;humidity
2785;BME280;57944;48.722;9.316;2024-01-30T00:01:04;99429.06;;;0.52;100.00
2785;BME280;57944;48.722;9.316;2024-01-30T00:03:34;99427.66;;;0.48;100.00
2785;BME280;57944;48.722;9.316;2024-01-30T00:06:05;99415.19;;;0.46;100.00
2785;BME280;57944;48.722;9.316;2024-01-30T00:08:39;99418.31;;;0.50;100.00
2785;BME280;57944;48.722;9.316;2024-01-30T00:11:09;99416.28;;;0.42;100.00
2785;BME280;57944;48.722;9.316;2024-01-30T00:13:40;99418.72;;;0.29;100.00
2785;BME280;57944;48.722;9.316;2024-01-30T00:16:20;99417.16;;;0.41;100.00
2785;BME280;57944;48.722;9.316;2024-01-30T00:18:52;99416.56;;;0.37;100.00
2785;BME280;57944;48.722;9.316;2024-01-30T00:21:23;99423.63;;;0.45;100.00
2785;BME280;57944;48.722;9.316;2024-01-30T00:23:56;99422.78;;;0.44;100.00
2785;BME280;57944;48.722;9.316;2024-01-30T00:26:26;99429.00;;;0.53;100.00
2785;BME280;57944;48.722;9.316;2024-01-30T00:28:57;99427.97;;;0.70;100.00
2785;BME280;57944;48.722;9.316;2024-01-30T00:31:27;99425.34;;;0.72;100.00
2785;BME280;57944;48.722;9.316;2024-01-30T00:33:58;99418.34;;;0.77;100.00
2785;BME280;57944;48.722;9.316;2024-01-30T00:36:29;99426.97;;;0.73;100.00
2785;BME280;57944;48.722;9.316;2024-01-30T00:39:04;99423.56;;;0.74;100.00
2785;BME280;57944;48.722;9.316;2024-01-30T00:41:36;99431.09;;;0.74;100.00
2785;BME280;57944;48.722;9.316;2024-01-30T00:44:07;99430.38;;;0.72;100.00
2785;BME280;57944;48.722;9.316;2024-01-30T00:46:37;99428.66;;;0.72;100.00
2785;BME280;57944;48.722;9.316;2024-01-30T00:49:08;99425.56;;;0.54;100.00
2785;BME280;57944;48.722;9.316;2024-01-30T00:51:39;99423.41;;;0.62;100.00
2785;BME280;57944;48.722;9.316;2024-01-30T00:54:12;99425.72;;;0.65;100.00
2785;BME280;57944;48.722;9.316;2024-01-30T00:56:42;99425.19;;;0.60;100.00
2785;BME280;57944;48.722;9.316;2024-01-30T00:59:13;99424.63;;;0.42;100.00
2785;BME280;57944;48.722;9.316;2024-01-30T01:01:44;99427.31;;;0.39;100.00
2785;BME280;57944;48.722;9.316;2024-01-30T01:04:15;99427.94;;;0.29;100.00
2785;BME280;57944;48.722;9.316;2024-01-30T01:06:46;99433.31;;;0.22;100.00
2785;BME280;57944;48.722;9.316;2024-01-30T01:09:19;99437.63;;;0.20;100.00
2785;BME280;57944;48.722;9.316;2024-01-30T01:11:49;99437.88;;;0.16;100.00
2785;BME280;57944;48.722;9.316;2024-01-30T01:14:20;99434.75;;;0.12;100.00
2785;BME280;57944;48.722;9.316;2024-01-30T01:16:50;99437.00;;;0.17;100.00
2785;BME280;57944;48.722;9.316;2024-01-30T01:19:21;99438.50;;;0.19;100.00
2785;BME280;57944;48.722;9.316;2024-01-30T01:21:52;99436.09;;;0.18;100.00
2785;BME280;57944;48.722;9.316;2024-01-30T01:24:25;99435.97;;;0.05;100.00
2785;BME280;57944;48.722;9.316;2024-01-30T01:26:55;99433.13;;;-0.03;100.00
2785;BME280;57944;48.722;9.316;2024-01-30T01:29:26;99439.22;;;0.07;100.00
2785;BME280;57944;48.722;9.316;2024-01-30T01:31:57;99430.78;;;0.08;100.00
2785;BME280;57944;48.722;9.316;2024-01-30T01:34:28;99431.34;;;-0.01;100.00
2785;BME280;57944;48.722;9.316;2024-01-30T01:36:58;99427.94;;;0.00;100.00
2785;BME280;57944;48.722;9.316;2024-01-30T01:39:32;99427.13;;;-0.15;100.00
2785;BME280;57944;48.722;9.316;2024-01-30T01:42:03;99427.41;;;-0.19;100.00
2785;BME280;57944;48.722;9.316;2024-01-30T01:44:34;99435.78;;;-0.20;100.00
2785;BME280;57944;48.722;9.316;2024-01-30T01:47:04;99429.34;;;-0.25;100.00
2785;BME280;57944;48.722;9.316;2024-01-30T01:49:35;99426.13;;;-0.27;100.00
2785;BME280;57944;48.722;9.316;2024-01-30T01:52:07;99430.06;;;-0.23;100.00
2785;BME280;57944;48.722;9.316;2024-01-30T01:54:42;99433.28;;;-0.20;100.00
2785;BME280;57944;48.722;9.316;2024-01-30T01:57:13;99431.31;;;-0.15;100.00
2785;BME280;57944;48.722;9.316;2024-01-30T01:59:43;99434.44;;;-0.12;100.00
2785;BME280;57944;48.722;9.316;2024-01-30T02:02:15;99435.00;;;-0.21;100.00
2785;BME280;57944;48.722;9.316;2024-01-30T02:04:47;99436.25;;;-0.14;100.00
2785;BME280;57944;48.722;9.316;2024-01-30T02:07:18;99438.84;;;-0.15;100.00
2785;BME280;57944;48.722;9.316;2024-01-30T02:09:52;99438.47;;;-0.09;100.00
2785;BME280;57944;48.722;9.316;2024-01-30T02:12:22;99442.81;;;0.03;100.00
2785;BME280;57944;48.722;9.316;2024-01-30T02:14:53;99442.25;;;-0.02;100.00
2785;BME280;57944;48.722;9.316;2024-01-30T02:17:24;99438.66;;;-0.12;100.00
2785;BME280;57944;48.722;9.316;2024-01-30T02:19:54;99440.13;;;-0.08;100.00
2785;BME280;57944;48.722;9.316;2024-01-30T02:22:28;99443.50;;;-0.09;100.00
2785;BME280;57944;48.722;9.316;2024-01-30T02:24:58;99432.22;;;-0.16;100.00
2785;BME280;57944;48.722;9.316;2024-01-30T02:27:29;99441.94;;;-0.26;100.00
2785;BME280;57944;48.722;9.316;2024-01-30T02:30:00;99436.31;;;-0.30;100.00
2785;BME280;57944;48.722;9.316;2024-01-30T02:32:30;99436.66;;;-0.36;100.00
2785;BME280;57944;48.722;9.316;2024-01-30T02:35:01;99431.09;;;-0.41;100.00
2785;BME280;57944;48.722;9.316;2024-01-30T02:37:34;99433.97;;;-0.47;100.00
2785;BME280;57944;48.722;9.316;2024-01-30T02:40:07;99433.59;;;-0.55;100.00
2785;BME280;57944;48.722;9.316;2024-01-30T02:42:37;99438.31;;;-0.51;100.00
2785;BME280;57944;48.722;9.316;2024-01-30T02:45:11;99432.16;;;-0.45;100.00
2785;BME280;57944;48.722;9.316;2024-01-30T02:47:42;99435.19;;;-0.54;100.00
2785;BME280;57944;48.722;9.316;2024-01-30T02:50:12;99429.78;;;-0.62;100.00
2785;BME280;57944;48.722;9.316;2024-01-30T02:52:46;99431.31;;;-0.60;100.00
2785;BME280;57944;48.722;9.316;2024-01-30T02:55:17;99428.69;;;-0.73;100.00
2785;BME280;57944;48.722;9.316;2024-01-30T02:57:48;99425.13;;;-0.69;100.00
2785;BME280;57944;48.722;9.316;2024-01-30T03:00:19;99433.38;;;-0.66;100.00
2785;BME280;57944;48.722;9.316;2024-01-30T03:02:49;99429.22;;;-0.68;100.00
2785;BME280;57944;48.722;9.316;2024-01-30T03:05:20;99430.13;;;-0.69;100.00
2785;BME280;57944;48.722;9.316;2024-01-30T03:07:53;99423.66;;;-0.73;100.00
2785;BME280;57944;48.722;9.316;2024-01-30T03:10:24;99423.94;;;-0.77;100.00
2785;BME280;57944;48.722;9.316;2024-01-30T03:12:55;99415.47;;;-0.75;100.00
2785;BME280;57944;48.722;9.316;2024-01-30T03:15:25;99418.53;;;-0.70;100.00
2785;BME280;57944;48.722;9.316;2024-01-30T03:17:56;99421.91;;;-0.71;100.00
2785;BME280;57944;48.722;9.316;2024-01-30T03:20:27;99423.34;;;-0.66;100.00
2785;BME280;57944;48.722;9.316;2024-01-30T03:23:00;99423.81;;;-0.60;100.00
2785;BME280;57944;48.722;9.316;2024-01-30T03:25:31;99423.81;;;-0.60;100.00
2785;BME280;57944;48.722;9.316;2024-01-30T03:28:01;99432.84;;;-0.57;100.00
2785;BME280;57944;48.722;9.316;2024-01-30T03:30:35;99428.22;;;-0.49;100.00
2785;BME280;57944;48.722;9.316;2024-01-30T03:33:05;99424.16;;;-0.36;100.00
2785;BME280;57944;48.722;9.316;2024-01-30T03:35:36;99428.47;;;-0.09;100.00
2785;BME280;57944;48.722;9.316;2024-01-30T03:38:09;99424.91;;;-0.05;100.00
2785;BME280;57944;48.722;9.316;2024-01-30T03:40:40;99438.47;;;-0.09;100.00
2785;BME280;57944;48.722;9.316;2024-01-30T03:43:10;99434.00;;;-0.18;100.00
2785;BME280;57944;48.722;9.316;2024-01-30T03:45:41;99428.97;;;-0.33;100.00
2785;BME280;57944;48.722;9.316;2024-01-30T03:48:11;99434.16;;;-0.36;100.00
2785;BME280;57944;48.722;9.316;2024-01-30T03:50:42;99421.38;;;-0.31;100.00
2785;BME280;57944;48.722;9.316;2024-01-30T03:53:15;99423.00;;;-0.30;100.00
2785;BME280;57944;48.722;9.316;2024-01-30T03:55:46;99424.88;;;-0.19;100.00
2785;BME280;57944;48.722;9.316;2024-01-30T03:58:16;99430.94;;;-0.24;100.00
2785;BME280;57944;48.722;9.316;2024-01-30T04:00:47;99431.00;;;-0.39;100.00
2785;BME280;57944;48.722;9.316;2024-01-30T04:03:18;99428.94;;;-0.47;100.00
2785;BME280;57944;48.722;9.316;2024-01-30T04:05:49;99419.13;;;-0.50;100.00
2785;BME280;57944;48.722;9.316;2024-01-30T04:08:22;99427.31;;;-0.48;100.00
2785;BME280;57944;48.722;9.316;2024-01-30T04:10:52;99431.69;;;-0.52;100.00
2785;BME280;57944;48.722;9.316;2024-01-30T04:13:23;99434.22;;;-0.52;100.00
2785;BME280;57944;48.722;9.316;2024-01-30T04:15:54;99435.44;;;-0.59;100.00
2785;BME280;57944;48.722;9.316;2024-01-30T04:18:25;99434.97;;;-0.65;100.00
2785;BME280;57944;48.722;9.316;2024-01-30T04:20:55;99435.69;;;-0.63;100.00
2785;BME280;57944;48.722;9.316;2024-01-30T04:23:28;99430.22;;;-0.70;100.00
2785;BME280;57944;48.722;9.316;2024-01-30T04:25:59;99428.69;;;-0.73;100.00
2785;BME280;57944;48.722;9.316;2024-01-30T04:28:30;99424.56;;;-0.74;100.00
2785;BME280;57944;48.722;9.316;2024-01-30T04:31:01;99428.19;;;-0.63;100.00
2785;BME280;57944;48.722;9.316;2024-01-30T04:33:31;99425.50;;;-0.60;100.00
2785;BME280;57944;48.722;9.316;2024-01-30T04:36:02;99430.59;;;-0.62;100.00
2785;BME280;57944;48.722;9.316;2024-01-30T04:38:36;99428.59;;;-0.71;100.00
2785;BME280;57944;48.722;9.316;2024-01-30T04:41:06;99430.78;;;-0.81;100.00
2785;BME280;57944;48.722;9.316;2024-01-30T04:43:37;99427.59;;;-0.83;100.00
2785;BME280;57944;48.722;9.316;2024-01-30T04:46:08;99429.19;;;-0.82;100.00
2785;BME280;57944;48.722;9.316;2024-01-30T04:48:38;99429.03;;;-0.79;100.00
2785;BME280;57944;48.722;9.316;2024-01-30T04:51:09;99429.34;;;-0.85;100.00
2785;BME280;57944;48.722;9.316;2024-01-30T04:53:42;99422.81;;;-0.87;100.00
2785;BME280;57944;48.722;9.316;2024-01-30T04:56:13;99431.13;;;-0.87;100.00
2785;BME280;57944;48.722;9.316;2024-01-30T04:58:43;99431.78;;;-0.83;100.00
2785;BME280;57944;48.722;9.316;2024-01-30T05:01:15;99429.19;;;-0.82;100.00
2785;BME280;57944;48.722;9.316;2024-01-30T05:03:46;99442.25;;;-0.77;100.00
2785;BME280;57944;48.722;9.316;2024-01-30T05:06:24;99437.66;;;-0.84;100.00
2785;BME280;57944;48.722;9.316;2024-01-30T05:08:58;99434.59;;;-0.90;100.00
2785;BME280;57944;48.722;9.316;2024-01-30T05:11:28;99438.06;;;-0.92;100.00
2785;BME280;57944;48.722;9.316;2024-01-30T05:13:59;99444.72;;;-0.91;100.00
2785;BME280;57944;48.722;9.316;2024-01-30T05:16:29;99442.13;;;-0.90;100.00
2785;BME280;57944;48.722;9.316;2024-01-30T05:19:00;99438.97;;;-0.93;100.00
2785;BME280;57944;48.722;9.316;2024-01-30T05:21:31;99440.75;;;-0.95;100.00
2785;BME280;57944;48.722;9.316;2024-01-30T05:24:04;99445.22;;;-1.00;100.00
2785;BME280;57944;48.722;9.316;2024-01-30T05:26:37;99436.31;;;-1.06;100.00
2785;BME280;57944;48.722;9.316;2024-01-30T05:29:08;99449.50;;;-1.02;100.00
2785;BME280;57944;48.722;9.316;2024-01-30T05:31:38;99439.31;;;-0.99;100.00
2785;BME280;57944;48.722;9.316;2024-01-30T05:34:09;99448.41;;;-0.98;100.00
2785;BME280;57944;48.722;9.316;2024-01-30T05:36:39;99448.13;;;-1.08;100.00
2785;BME280;57944;48.722;9.316;2024-01-30T05:39:13;99445.69;;;-1.09;100.00
2785;BME280;57944;48.722;9.316;2024-01-30T05:41:43;99446.59;;;-1.10;100.00
2785;BME280;57944;48.722;9.316;2024-01-30T05:44:14;99450.28;;;-1.02;100.00
2785;BME280;57944;48.722;9.316;2024-01-30T05:46:45;99451.72;;;-0.98;100.00
2785;BME280;57944;48.722;9.316;2024-01-30T05:49:15;99447.38;;;-0.94;100.00
2785;BME280;57944;48.722;9.316;2024-01-30T05:51:46;99449.94;;;-0.96;100.00
2785;BME280;57944;48.722;9.316;2024-01-30T05:54:19;99449.88;;;-0.94;100.00
2785;BME280;57944;48.722;9.316;2024-01-30T05:56:49;99445.22;;;-1.00;100.00
2785;BME280;57944;48.722;9.316;2024-01-30T05:59:20;99444.72;;;-0.91;100.00
2785;BME280;57944;48.722;9.316;2024-01-30T06:01:50;99450.13;;;-0.83;100.00
2785;BME280;57944;48.722;9.316;2024-01-30T06:04:21;99452.44;;;-0.80;100.00
2785;BME280;57944;48.722;9.316;2024-01-30T06:06:52;99456.47;;;-0.77;100.00
2785;BME280;57944;48.722;9.316;2024-01-30T06:09:25;99451.53;;;-0.79;100.00
2785;BME280;57944;48.722;9.316;2024-01-30T06:11:56;99457.34;;;-0.78;100.00
2785;BME280;57944;48.722;9.316;2024-01-30T06:14:26;99456.72;;;-0.82;100.00
2785;BME280;57944;48.722;9.316;2024-01-30T06:16:57;99462.00;;;-1.02;100.00
2785;BME280;57944;48.722;9.316;2024-01-30T06:19:27;99454.09;;;-0.95;100.00
2785;BME280;57944;48.722;9.316;2024-01-30T06:21:58;99451.59;;;-0.95;100.00
2785;BME280;57944;48.722;9.316;2024-01-30T06:24:34;99448.19;;;-0.94;100.00
2785;BME280;57944;48.722;9.316;2024-01-30T06:27:05;99449.31;;;-0.99;100.00
2785;BME280;57944;48.722;9.316;2024-01-30T06:29:35;99463.84;;;-1.06;100.00
2785;BME280;57944;48.722;9.316;2024-01-30T06:32:06;99460.47;;;-1.05;100.00
2785;BME280;57944;48.722;9.316;2024-01-30T06:34:41;99460.38;;;-1.19;100.00
2785;BME280;57944;48.722;9.316;2024-01-30T06:37:12;99460.84;;;-1.28;100.00
2785;BME280;57944;48.722;9.316;2024-01-30T06:39:45;99461.25;;;-1.20;100.00
2785;BME280;57944;48.722;9.316;2024-01-30T06:42:16;99461.81;;;-1.15;100.00
2785;BME280;57944;48.722;9.316;2024-01-30T06:44:46;99460.06;;;-1.13;100.00
2785;BME280;57944;48.722;9.316;2024-01-30T06:47:17;99457.63;;;-1.15;100.00
2785;BME280;57944;48.722;9.316;2024-01-30T06:49:48;99462.88;;;-1.19;100.00
2785;BME280;57944;48.722;9.316;2024-01-30T06:52:18;99470.06;;;-1.29;100.00
2785;BME280;57944;48.722;9.316;2024-01-30T06:54:54;99461.91;;;-1.32;100.00
2785;BME280;57944;48.722;9.316;2024-01-30T06:57:25;99461.19;;;-1.35;100.00
2785;BME280;57944;48.722;9.316;2024-01-30T06:59:55;99460.03;;;-1.29;100.00
2785;BME280;57944;48.722;9.316;2024-01-30T07:02:26;99466.34;;;-1.38;100.00
2785;BME280;57944;48.722;9.316;2024-01-30T07:04:57;99468.44;;;-1.30;100.00
2785;BME280;57944;48.722;9.316;2024-01-30T07:07:28;99472.97;;;-1.21;100.00
2785;BME280;57944;48.722;9.316;2024-01-30T07:10:01;99472.97;;;-1.21;100.00
2785;BME280;57944;48.722;9.316;2024-01-30T07:12:32;99472.91;;;-1.19;100.00
2785;BME280;57944;48.722;9.316;2024-01-30T07:15:04;99476.03;;;-1.16;100.00
2785;BME280;57944;48.722;9.316;2024-01-30T07:17:35;99477.19;;;-1.05;100.00
2785;BME280;57944;48.722;9.316;2024-01-30T07:20:07;99481.03;;;-1.00;100.00
2785;BME280;57944;48.722;9.316;2024-01-30T07:22:43;99481.00;;;-0.84;100.00
2785;BME280;57944;48.722;9.316;2024-01-30T07:25:17;99478.03;;;-0.75;100.00
2785;BME280;57944;48.722;9.316;2024-01-30T07:27:49;99482.53;;;-0.65;100.00
2785;BME280;57944;48.722;9.316;2024-01-30T07:30:20;99477.81;;;-0.56;100.00
2785;BME280;57944;48.722;9.316;2024-01-30T07:32:51;99489.06;;;-0.47;100.00
2785;BME280;57944;48.722;9.316;2024-01-30T07:35:21;99489.16;;;-0.34;100.00
2785;BME280;57944;48.722;9.316;2024-01-30T07:37:52;99492.53;;;-0.19;100.00
2785;BME280;57944;48.722;9.316;2024-01-30T07:40:27;99501.13;;;-0.09;100.00
2785;BME280;57944;48.722;9.316;2024-01-30T07:42:57;99499.00;;;-0.01;100.00
2785;BME280;57944;48.722;9.316;2024-01-30T07:45:28;99494.97;;;0.11;100.00
2785;BME280;57944;48.722;9.316;2024-01-30T07:48:00;99497.78;;;0.20;100.00
2785;BME280;57944;48.722;9.316;2024-01-30T07:50:31;99493.84;;;0.31;100.00
2785;BME280;57944;48.722;9.316;2024-01-30T07:53:02;99492.41;;;0.41;100.00
2785;BME280;57944;48.722;9.316;2024-01-30T07:55:35;99486.03;;;0.50;100.00
2785;BME280;57944;48.722;9.316;2024-01-30T07:58:06;99489.19;;;0.53;100.00
2785;BME280;57944;48.722;9.316;2024-01-30T08:00:37;99494.09;;;0.55;100.00
2785;BME280;57944;48.722;9.316;2024-01-30T08:03:09;99493.72;;;0.61;100.00
2785;BME280;57944;48.722;9.316;2024-01-30T08:05:40;99498.41;;;0.67;100.00
2785;BME280;57944;48.722;9.316;2024-01-30T08:08:10;99500.44;;;0.75;100.00
2785;BME280;57944;48.722;9.316;2024-01-30T08:10:44;99497.47;;;0.82;100.00
2785;BME280;57944;48.722;9.316;2024-01-30T08:13:16;99491.28;;;0.88;100.00
2785;BME280;57944;48.722;9.316;2024-01-30T08:15:46;99493.75;;;1.02;100.00
2785;BME280;57944;48.722;9.316;2024-01-30T08:18:17;99496.22;;;1.17;100.00
2785;BME280;57944;48.722;9.316;2024-01-30T08:20:47;99488.56;;;1.32;100.00
2785;BME280;57944;48.722;9.316;2024-01-30T08:23:18;99491.53;;;1.52;100.00
2785;BME280;57944;48.722;9.316;2024-01-30T08:25:51;99491.38;;;1.68;100.00
2785;BME280;57944;48.722;9.316;2024-01-30T08:28:22;99493.69;;;1.84;100.00
2785;BME280;57944;48.722;9.316;2024-01-30T08:30:54;99492.81;;;1.97;100.00
2785;BME280;57944;48.722;9.316;2024-01-30T08:33:25;99487.00;;;2.10;100.00
2785;BME280;57944;48.722;9.316;2024-01-30T08:35:57;99485.75;;;2.28;100.00
2785;BME280;57944;48.722;9.316;2024-01-30T08:38:28;99487.84;;;2.47;100.00
2785;BME280;57944;48.722;9.316;2024-01-30T08:41:01;99493.59;;;2.62;100.00
2785;BME280;57944;48.722;9.316;2024-01-30T08:43:32;99486.25;;;2.96;100.00
2785;BME280;57944;48.722;9.316;2024-01-30T08:46:04;99488.97;;;3.17;100.00
2785;BME280;57944;48.722;9.316;2024-01-30T08:48:36;99479.59;;;3.43;100.00
2785;BME280;57944;48.722;9.316;2024-01-30T08:51:07;99493.41;;;3.61;100.00
2785;BME280;57944;48.722;9.316;2024-01-30T08:53:38;99485.00;;;3.85;100.00
2785;BME280;57944;48.722;9.316;2024-01-30T08:56:12;99498.09;;;4.12;100.00
2785;BME280;57944;48.722;9.316;2024-01-30T08:58:44;99495.47;;;4.36;100.00
2785;BME280;57944;48.722;9.316;2024-01-30T09:01:15;99499.25;;;4.64;100.00
2785;BME280;57944;48.722;9.316;2024-01-30T09:03:45;99498.47;;;4.64;100.00
2785;BME280;57944;48.722;9.316;2024-01-30T09:06:16;99498.09;;;4.80;100.00
2785;BME280;57944;48.722;9.316;2024-01-30T09:08:47;99499.44;;;4.95;100.00
2785;BME280;57944;48.722;9.316;2024-01-30T09:11:20;99507.19;;;5.14;100.00
2785;BME280;57944;48.722;9.316;2024-01-30T09:13:51;99512.63;;;5.10;100.00
2785;BME280;57944;48.722;9.316;2024-01-30T09:16:21;99502.56;;;5.31;100.00
2785;BME280;57944;48.722;9.316;2024-01-30T09:18:52;99514.09;;;5.12;100.00
2785;BME280;57944;48.722;9.316;2024-01-30T09:21:23;99513.41;;;5.22;100.00
2785;BME280;57944;48.722;9.316;2024-01-30T09:23:55;99514.81;;;5.47;100.00
2785;BME280;57944;48.722;9.316;2024-01-30T09:26:34;99518.22;;;5.78;100.00
2785;BME280;57944;48.722;9.316;2024-01-30T09:29:04;99513.31;;;5.97;100.00
2785;BME280;57944;48.722;9.316;2024-01-30T09:31:35;99513.09;;;6.31;100.00
2785;BME280;57944;48.722;9.316;2024-01-30T09:34:06;99511.34;;;6.62;100.00
2785;BME280;57944;48.722;9.316;2024-01-30T09:36:36;99510.06;;;6.87;100.00
2785;BME280;57944;48.722;9.316;2024-01-30T09:39:07;99511.88;;;7.16;100.00
2785;BME280;57944;48.722;9.316;2024-01-30T09:41:46;99513.22;;;7.39;100.00
2785;BME280;57944;48.722;9.316;2024-01-30T09:44:17;99506.91;;;7.63;100.00
2785;BME280;57944;48.722;9.316;2024-01-30T09:46:50;99510.09;;;7.84;100.00
2785;BME280;57944;48.722;9.316;2024-01-30T09:49:21;99511.59;;;7.77;100.00
2785;BME280;57944;48.722;9.316;2024-01-30T09:51:52;99511.19;;;7.72;100.00
2785;BME280;57944;48.722;9.316;2024-01-30T09:54:24;99512.09;;;7.91;100.00
2785;BME280;57944;48.722;9.316;2024-01-30T09:56:57;99509.06;;;7.77;100.00
2785;BME280;57944;48.722;9.316;2024-01-30T09:59:28;99514.81;;;7.60;100.00
2785;BME280;57944;48.722;9.316;2024-01-30T10:01:58;99523.25;;;7.60;100.00
2785;BME280;57944;48.722;9.316;2024-01-30T10:04:31;99508.28;;;7.67;100.00
2785;BME280;57944;48.722;9.316;2024-01-30T10:07:02;99510.78;;;7.87;100.00
2785;BME280;57944;48.722;9.316;2024-01-30T10:09:34;99508.47;;;8.03;100.00
2785;BME280;57944;48.722;9.316;2024-01-30T10:12:09;99509.69;;;8.46;100.00
2785;BME280;57944;48.722;9.316;2024-01-30T10:14:40;99511.28;;;8.75;100.00
2785;BME280;57944;48.722;9.316;2024-01-30T10:17:14;99502.28;;;8.80;100.00
2785;BME280;57944;48.722;9.316;2024-01-30T10:19:58;99503.84;;;8.91;100.00
2785;BME280;57944;48.722;9.316;2024-01-30T10:22:29;99514.69;;;9.11;100.00
2785;BME280;57944;48.722;9.316;2024-01-30T10:25:00;99517.09;;;9.30;94.57
2785;BME280;57944;48.722;9.316;2024-01-30T10:27:35;99509.19;;;9.33;91.80
2785;BME280;57944;48.722;9.316;2024-01-30T10:30:07;99511.78;;;9.59;89.86
2785;BME280;57944;48.722;9.316;2024-01-30T10:32:38;99505.78;;;9.87;87.34
2785;BME280;57944;48.722;9.316;2024-01-30T10:35:11;99508.03;;;9.72;85.68
2785;BME280;57944;48.722;9.316;2024-01-30T10:37:44;99507.97;;;9.81;83.94
2785;BME280;57944;48.722;9.316;2024-01-30T10:40:16;99503.38;;;10.37;81.06
2785;BME280;57944;48.722;9.316;2024-01-30T10:42:53;99503.81;;;10.83;74.97
2785;BME280;57944;48.722;9.316;2024-01-30T10:45:27;99495.75;;;11.04;73.20
2785;BME280;57944;48.722;9.316;2024-01-30T10:48:00;99493.38;;;11.35;71.35
2785;BME280;57944;48.722;9.316;2024-01-30T10:50:32;99495.63;;;11.63;70.58
2785;BME280;57944;48.722;9.316;2024-01-30T10:53:18;99493.06;;;11.63;69.78
2785;BME280;57944;48.722;9.316;2024-01-30T10:55:52;99494.16;;;11.85;69.76
2785;BME280;57944;48.722;9.316;2024-01-30T10:58:25;99490.81;;;11.93;68.73
2785;BME280;57944;48.722;9.316;2024-01-30T11:00:57;99483.75;;;12.03;70.70
2785;BME280;57944;48.722;9.316;2024-01-30T11:03:29;99487.38;;;12.25;68.88
2785;BME280;57944;48.722;9.316;2024-01-30T11:06:01;99482.03;;;12.43;64.07
2785;BME280;57944;48.722;9.316;2024-01-30T11:08:33;99483.19;;;12.71;64.25
2785;BME280;57944;48.722;9.316;2024-01-30T11:11:09;99481.75;;;12.92;60.77
2785;BME280;57944;48.722;9.316;2024-01-30T11:13:46;99482.44;;;12.86;60.94
2785;BME280;57944;48.722;9.316;2024-01-30T11:16:20;99479.25;;;12.84;59.86
2785;BME280;57944;48.722;9.316;2024-01-30T11:18:51;99484.47;;;12.99;58.54
2785;BME280;57944;48.722;9.316;2024-01-30T11:21:25;99477.56;;;12.99;60.03
2785;BME280;57944;48.722;9.316;2024-01-30T11:23:57;99477.03;;;12.81;60.26
2785;BME280;57944;48.722;9.316;2024-01-30T11:26:28;99470.63;;;12.85;59.77
2785;BME280;57944;48.722;9.316;2024-01-30T11:29:03;99468.41;;;12.82;60.41
2785;BME280;57944;48.722;9.316;2024-01-30T11:31:34;99465.50;;;12.53;60.95
2785;BME280;57944;48.722;9.316;2024-01-30T11:34:05;99471.47;;;12.46;62.81
2785;BME280;57944;48.722;9.316;2024-01-30T11:36:37;99461.97;;;12.63;61.92
2785;BME280;57944;48.722;9.316;2024-01-30T11:39:09;99457.94;;;12.68;62.72
2785;BME280;57944;48.722;9.316;2024-01-30T11:41:40;99460.75;;;12.82;61.66
2785;BME280;57944;48.722;9.316;2024-01-30T11:44:15;99465.16;;;12.88;62.71
2785;BME280;57944;48.722;9.316;2024-01-30T11:46:45;99456.03;;;12.93;62.38
2785;BME280;57944;48.722;9.316;2024-01-30T11:49:19;99455.78;;;13.03;61.48
2785;BME280;57944;48.722;9.316;2024-01-30T11:51:49;99454.69;;;12.97;62.40
2785;BME280;57944;48.722;9.316;2024-01-30T11:54:21;99454.47;;;13.07;63.60
2785;BME280;57944;48.722;9.316;2024-01-30T11:56:51;99450.97;;;13.23;63.92
2785;BME280;57944;48.722;9.316;2024-01-30T11:59:24;99450.28;;;13.37;63.13
2785;BME280;57944;48.722;9.316;2024-01-30T12:01:55;99443.84;;;13.18;61.67
2785;BME280;57944;48.722;9.316;2024-01-30T12:04:28;99444.34;;;12.91;64.95
2785;BME280;57944;48.722;9.316;2024-01-30T12:06:59;99437.91;;;12.95;65.41
2785;BME280;57944;48.722;9.316;2024-01-30T12:09:31;99439.75;;;13.09;64.70
2785;BME280;57944;48.722;9.316;2024-01-30T12:12:02;99439.13;;;13.07;65.73
2785;BME280;57944;48.722;9.316;2024-01-30T12:14:35;99427.47;;;13.05;66.34
2785;BME280;57944;48.722;9.316;2024-01-30T12:17:06;99429.09;;;12.97;65.99
2785;BME280;57944;48.722;9.316;2024-01-30T12:19:38;99430.72;;;12.99;67.82
2785;BME280;57944;48.722;9.316;2024-01-30T12:22:11;99431.22;;;12.94;66.13
2785;BME280;57944;48.722;9.316;2024-01-30T12:24:42;99416.16;;;12.99;67.23
2785;BME280;57944;48.722;9.316;2024-01-30T12:27:15;99414.00;;;12.88;65.07
2785;BME280;57944;48.722;9.316;2024-01-30T12:29:48;99415.16;;;13.00;63.96
2785;BME280;57944;48.722;9.316;2024-01-30T12:32:25;99415.38;;;12.99;62.38
2785;BME280;57944;48.722;9.316;2024-01-30T12:34:57;99419.38;;;13.16;63.54
2785;BME280;57944;48.722;9.316;2024-01-30T12:37:29;99416.91;;;13.23;61.67
2785;BME280;57944;48.722;9.316;2024-01-30T12:40:00;99411.13;;;13.29;59.90
2785;BME280;57944;48.722;9.316;2024-01-30T12:42:30;99403.16;;;13.24;62.06
2785;BME280;57944;48.722;9.316;2024-01-30T12:45:04;99411.97;;;13.21;60.32
2785;BME280;57944;48.722;9.316;2024-01-30T12:47:35;99401.69;;;13.06;62.30
2785;BME280;57944;48.722;9.316;2024-01-30T12:50:06;99404.25;;;13.06;60.98
2785;BME280;57944;48.722;9.316;2024-01-30T12:52:38;99409.63;;;13.11;61.03
2785;BME280;57944;48.722;9.316;2024-01-30T12:55:08;99401.84;;;13.28;61.02
2785;BME280;57944;48.722;9.316;2024-01-30T12:57:39;99400.47;;;13.40;59.36
2785;BME280;57944;48.722;9.316;2024-01-30T13:00:13;99397.91;;;13.40;59.13
2785;BME280;57944;48.722;9.316;2024-01-30T13:02:45;99407.31;;;13.62;58.88
2785;BME280;57944;48.722;9.316;2024-01-30T13:05:16;99408.97;;;13.70;58.08
2785;BME280;57944;48.722;9.316;2024-01-30T13:07:47;99415.06;;;13.84;57.77
2785;BME280;57944;48.722;9.316;2024-01-30T13:10:19;99409.25;;;13.90;57.47
2785;BME280;57944;48.722;9.316;2024-01-30T13:12:49;99405.25;;;14.02;56.43
2785;BME280;57944;48.722;9.316;2024-01-30T13:15:23;99406.81;;;14.18;55.26
2785;BME280;57944;48.722;9.316;2024-01-30T13:17:53;99409.56;;;14.17;53.01
2785;BME280;57944;48.722;9.316;2024-01-30T13:20:24;99401.78;;;14.10;53.98
2785;BME280;57944;48.722;9.316;2024-01-30T13:22:55;99406.38;;;14.15;53.46
2785;BME280;57944;48.722;9.316;2024-01-30T13:25:26;99406.47;;;14.21;53.29
2785;BME280;57944;48.722;9.316;2024-01-30T13:27:56;99403.28;;;14.19;53.71
2785;BME280;57944;48.722;9.316;2024-01-30T13:30:30;99406.91;;;14.10;55.05